Time;durP1;ratioP1;P1;durP2;ratioP2;P2;SDS_P1;SDS_P2;PMS_P1;PMS_P2;Temp;Humidity;BMP_temperature;BMP_pressure;BME280_temperature;BME280_humidity;BME280_pressure;Samples;Min_cycle;Max_cycle;Signal;HPM_P1;HPM_P2
2023/10/05 00:01:24;;;;;;;0.63;0.57;;;13.90;99.90;;;;;;7395094;19;20515;-87
2023/10/05 00:03:51;;;;;;;0.93;0.80;;;13.90;99.90;;;;;;7395080;19;20599;-86
2023/10/05 00:06:25;;;;;;;1.17;0.82;;;14.10;99.90;;;;;;7393973;19;20178;-87
2023/10/05 00:08:55;;;;;;;0.90;0.68;;;14.20;99.90;;;;;;7395950;19;20162;-88
2023/10/05 00:11:23;;;;;;;1.25;0.60;;;14.30;99.90;;;;;;7394467;19;20510;-87
2023/10/05 00:13:57;;;;;;;0.50;0.50;;;14.40;99.90;;;;;;7394161;19;20134;-86
2023/10/05 00:16:36;;;;;;;0.73;0.63;;;14.40;99.90;;;;;;7392618;19;20608;-86
2023/10/05 00:19:12;;;;;;;0.60;0.60;;;14.30;99.90;;;;;;7395436;19;20150;-85
2023/10/05 00:21:51;;;;;;;0.65;0.52;;;14.30;99.90;;;;;;7392640;19;20166;-85
2023/10/05 00:24:37;;;;;;;1.10;0.70;;;14.40;99.90;;;;;;7390887;19;20142;-85
2023/10/05 00:27:09;;;;;;;1.02;0.77;;;14.40;99.90;;;;;;7396526;19;20627;-87
2023/10/05 00:29:45;;;;;;;0.57;0.55;;;14.50;99.90;;;;;;7393492;19;20166;-85
2023/10/05 00:32:16;;;;;;;0.68;0.65;;;14.40;99.90;;;;;;7395122;19;20154;-86
2023/10/05 00:34:44;;;;;;;0.55;0.50;;;13.90;99.90;;;;;;7392584;19;20164;-85
2023/10/05 00:37:10;;;;;;;2.13;0.90;;;13.90;99.90;;;;;;7392439;19;20631;-86
2023/10/05 00:39:37;;;;;;;1.40;0.50;;;14.00;99.90;;;;;;7395082;19;20154;-86
2023/10/05 00:44:30;;;;;;;0.60;0.50;;;14.20;99.90;;;;;;7395922;19;20769;-88
2023/10/05 00:47:00;;;;;;;0.63;0.60;;;14.00;99.90;;;;;;7394788;19;20138;-87
2023/10/05 00:49:37;;;;;;;0.52;0.52;;;14.00;99.90;;;;;;7394637;19;20154;-88
2023/10/05 00:52:14;;;;;;;0.93;0.77;;;14.20;99.90;;;;;;7395459;19;20146;-85
2023/10/05 00:54:44;;;;;;;0.40;0.40;;;13.90;99.90;;;;;;7393060;19;20146;-86
2023/10/05 00:57:14;;;;;;;1.08;0.73;;;14.10;99.90;;;;;;7390239;19;20270;-86
2023/10/05 00:59:56;;;;;;;0.85;0.68;;;14.10;99.90;;;;;;7393859;19;20150;-88
2023/10/05 01:02:23;;;;;;;0.80;0.60;;;14.20;99.90;;;;;;7393735;19;20150;-87
2023/10/05 01:04:56;;;;;;;2.33;0.90;;;14.30;99.90;;;;;;7392753;19;20161;-87
2023/10/05 01:10:07;;;;;;;1.00;0.63;;;14.30;99.90;;;;;;7393716;19;20126;-88
2023/10/05 01:12:38;;;;;;;0.95;0.85;;;14.20;99.90;;;;;;7393141;19;20150;-86
2023/10/05 01:15:08;;;;;;;0.63;0.60;;;14.30;99.90;;;;;;7392305;19;20158;-87
2023/10/05 01:17:36;;;;;;;1.00;0.68;;;14.30;99.90;;;;;;7394640;19;20667;-88
2023/10/05 01:22:39;;;;;;;1.10;0.70;;;14.20;99.90;;;;;;7391203;19;20142;-88
2023/10/05 01:25:07;;;;;;;1.20;0.82;;;14.20;99.90;;;;;;7391987;19;20190;-87
2023/10/05 01:27:34;;;;;;;1.35;0.90;;;14.20;99.90;;;;;;7392607;19;20143;-87
2023/10/05 01:30:00;;;;;;;0.85;0.80;;;14.10;99.90;;;;;;7393704;19;20135;-86
2023/10/05 01:32:26;;;;;;;0.90;0.70;;;14.20;99.90;;;;;;7393837;19;20134;-85
2023/10/05 01:34:53;;;;;;;0.60;0.57;;;13.80;99.90;;;;;;7388633;19;20142;-86
2023/10/05 01:37:23;;;;;;;1.10;0.70;;;13.30;99.90;;;;;;7389356;19;20142;-87
2023/10/05 01:39:50;;;;;;;1.10;0.80;;;13.00;99.90;;;;;;7393256;19;20138;-88
2023/10/05 01:42:19;;;;;;;1.58;0.90;;;13.60;99.90;;;;;;7393341;19;20146;-88
2023/10/05 01:44:47;;;;;;;2.03;0.88;;;13.90;99.90;;;;;;7391415;19;20142;-88
2023/10/05 01:47:17;;;;;;;1.10;0.70;;;13.90;99.90;;;;;;7392306;19;20138;-87
2023/10/05 01:49:45;;;;;;;1.45;0.85;;;14.10;99.90;;;;;;7392975;19;20235;-87
2023/10/05 01:52:11;;;;;;;0.68;0.57;;;14.20;99.90;;;;;;7393142;19;20593;-87
2023/10/05 01:54:37;;;;;;;2.28;1.10;;;14.20;99.90;;;;;;7393855;19;20146;-87
2023/10/05 01:57:09;;;;;;;1.17;0.70;;;14.10;99.90;;;;;;7390005;19;20493;-88
2023/10/05 01:59:35;;;;;;;1.10;0.80;;;14.10;99.90;;;;;;7392769;19;20522;-87
2023/10/05 02:02:01;;;;;;;3.15;1.27;;;13.80;99.90;;;;;;7393113;19;20154;-87
2023/10/05 02:04:29;;;;;;;1.05;0.95;;;13.90;99.90;;;;;;7393126;19;20598;-87
2023/10/05 02:06:55;;;;;;;1.00;0.73;;;14.00;99.90;;;;;;7387484;19;20185;-86
2023/10/05 02:09:21;;;;;;;1.63;1.00;;;14.00;99.90;;;;;;7391836;19;20595;-87
2023/10/05 02:11:47;;;;;;;0.65;0.65;;;14.00;99.90;;;;;;7391547;19;20150;-87
2023/10/05 02:14:17;;;;;;;0.85;0.80;;;13.80;99.90;;;;;;7388650;19;20142;-86
2023/10/05 02:16:49;;;;;;;0.90;0.73;;;13.90;99.90;;;;;;7388926;19;20174;-86
2023/10/05 02:19:16;;;;;;;1.20;0.70;;;14.10;99.90;;;;;;7389338;19;20901;-88
2023/10/05 02:21:43;;;;;;;1.35;1.00;;;14.20;99.90;;;;;;7389228;19;20139;-87
2023/10/05 02:24:18;;;;;;;0.98;0.80;;;14.10;99.90;;;;;;7389880;19;20861;-87
2023/10/05 02:29:28;;;;;;;1.08;0.93;;;13.80;99.90;;;;;;7390876;19;20150;-87
2023/10/05 02:32:21;;;;;;;0.75;0.73;;;13.90;99.90;;;;;;7391373;19;20142;-88
2023/10/05 02:35:02;;;;;;;1.13;0.73;;;13.70;99.90;;;;;;7396229;19;20171;-87
2023/10/05 02:37:28;;;;;;;2.17;0.90;;;13.20;99.90;;;;;;7395717;19;20142;-87
2023/10/05 02:39:57;;;;;;;0.60;0.60;;;13.50;99.90;;;;;;7397896;19;20167;-86
2023/10/05 02:42:24;;;;;;;0.95;0.80;;;13.80;99.90;;;;;;7397355;19;20138;-87
2023/10/05 02:44:55;;;;;;;0.70;0.65;;;13.80;99.90;;;;;;7395884;19;20528;-87
2023/10/05 02:47:23;;;;;;;0.73;0.60;;;13.80;99.90;;;;;;7396855;19;20172;-87
2023/10/05 02:49:49;;;;;;;0.63;0.63;;;13.00;99.90;;;;;;7396157;19;20139;-88
2023/10/05 02:52:16;;;;;;;1.00;0.70;;;12.70;99.90;;;;;;7396801;19;20141;-89
2023/10/05 02:54:47;;;;;;;1.20;0.73;;;12.90;99.90;;;;;;7396206;19;20147;-88
2023/10/05 02:57:16;;;;;;;0.40;0.40;;;13.00;99.90;;;;;;7394737;19;20163;-87
2023/10/05 02:59:43;;;;;;;1.73;0.93;;;13.30;99.90;;;;;;7396961;19;20146;-89
2023/10/05 03:02:14;;;;;;;0.50;0.50;;;13.70;99.90;;;;;;7395964;19;20154;-88
2023/10/05 03:04:57;;;;;;;0.65;0.60;;;13.60;99.90;;;;;;7394422;19;20170;-88
2023/10/05 03:07:25;;;;;;;1.17;0.73;;;13.40;99.90;;;;;;7393082;19;20150;-87
2023/10/05 03:09:52;;;;;;;1.50;0.93;;;13.60;99.90;;;;;;7395640;19;20150;-88
2023/10/05 03:12:22;;;;;;;0.93;0.82;;;13.70;99.90;;;;;;7395074;19;20138;-87
2023/10/05 03:14:50;;;;;;;0.68;0.60;;;13.80;99.90;;;;;;7395796;19;20138;-87
2023/10/05 03:17:19;;;;;;;0.82;0.63;;;13.90;99.90;;;;;;7393816;19;20520;-87
2023/10/05 03:19:46;;;;;;;0.77;0.55;;;13.90;99.90;;;;;;7395097;19;20221;-86
2023/10/05 03:22:12;;;;;;;1.10;0.80;;;13.90;99.90;;;;;;7394126;19;20507;-86
2023/10/05 03:24:42;;;;;;;1.50;0.85;;;13.80;99.90;;;;;;7394423;19;20218;-88
2023/10/05 03:27:08;;;;;;;0.70;0.70;;;14.00;99.90;;;;;;7393269;19;20142;-88
2023/10/05 03:29:35;;;;;;;1.05;0.73;;;13.90;99.90;;;;;;7394285;19;20242;-89
2023/10/05 03:32:13;;;;;;;1.35;1.05;;;13.90;99.90;;;;;;7395612;19;20131;-88
2023/10/05 03:34:42;;;;;;;1.05;0.80;;;12.80;99.90;;;;;;7392969;19;20154;-88
2023/10/05 03:37:15;;;;;;;0.95;0.88;;;12.60;99.90;;;;;;7392250;19;20160;-89
2023/10/05 03:40:06;;;;;;;1.10;0.70;;;12.90;99.90;;;;;;7400057;19;20254;-86
2023/10/05 03:42:32;;;;;;;1.90;1.05;;;13.20;99.90;;;;;;7395783;19;20165;-87
2023/10/05 03:45:08;;;;;;;0.50;0.50;;;13.50;99.90;;;;;;7394596;19;20143;-87
2023/10/05 03:47:38;;;;;;;1.00;0.90;;;13.40;99.90;;;;;;7395188;19;20598;-88
2023/10/05 03:50:08;;;;;;;0.80;0.65;;;13.60;99.90;;;;;;7395393;19;20143;-88
2023/10/05 03:52:34;;;;;;;1.15;0.90;;;13.50;99.90;;;;;;7395677;19;20539;-86
2023/10/05 03:55:01;;;;;;;0.65;0.50;;;13.30;99.90;;;;;;7392792;19;20181;-87
2023/10/05 03:57:31;;;;;;;1.00;0.70;;;13.20;99.90;;;;;;7392081;19;20151;-88
2023/10/05 04:00:18;;;;;;;2.42;0.65;;;13.10;99.90;;;;;;7394215;19;20169;-88
2023/10/05 04:02:44;;;;;;;2.20;0.98;;;13.50;99.90;;;;;;7393308;19;20619;-86
2023/10/05 04:05:11;;;;;;;0.80;0.77;;;13.20;99.90;;;;;;7395631;19;20153;-88
2023/10/05 04:07:38;;;;;;;1.40;0.98;;;13.20;99.90;;;;;;7396314;19;20154;-87
2023/10/05 04:10:07;;;;;;;1.90;1.25;;;13.40;99.90;;;;;;7394394;19;20149;-88
2023/10/05 04:12:34;;;;;;;1.35;0.90;;;13.70;99.90;;;;;;7393102;19;20134;-88
2023/10/05 04:15:01;;;;;;;0.93;0.88;;;13.80;99.90;;;;;;7394512;19;20522;-88
2023/10/05 04:17:27;;;;;;;1.08;1.00;;;13.80;99.90;;;;;;7389769;19;20182;-87
2023/10/05 04:19:53;;;;;;;1.50;0.82;;;13.80;99.90;;;;;;7393511;19;20166;-87
2023/10/05 04:22:19;;;;;;;0.63;0.63;;;13.20;99.90;;;;;;7393014;19;20162;-88
2023/10/05 04:24:45;;;;;;;0.70;0.70;;;13.20;99.90;;;;;;7392369;19;20173;-88
2023/10/05 04:27:12;;;;;;;1.08;0.88;;;13.00;99.90;;;;;;7392121;19;20178;-87
2023/10/05 04:29:38;;;;;;;3.30;0.85;;;12.80;99.90;;;;;;7393654;19;20170;-87
2023/10/05 04:32:06;;;;;;;0.93;0.68;;;13.20;99.90;;;;;;7394194;19;20131;-86
2023/10/05 04:34:33;;;;;;;1.38;0.88;;;13.50;99.90;;;;;;7394226;19;20159;-87
2023/10/05 04:36:58;;;;;;;1.38;0.70;;;13.70;99.90;;;;;;7390402;19;20154;-89
2023/10/05 04:39:29;;;;;;;1.25;1.15;;;13.60;99.90;;;;;;7393524;19;20135;-87
2023/10/05 04:41:57;;;;;;;0.77;0.77;;;13.50;99.90;;;;;;7393751;19;20170;-88
2023/10/05 04:44:23;;;;;;;1.15;1.05;;;13.60;99.90;;;;;;7394738;19;20562;-87
2023/10/05 04:46:51;;;;;;;2.17;1.13;;;13.80;99.90;;;;;;7393283;19;20607;-88
2023/10/05 04:49:18;;;;;;;1.08;0.63;;;13.80;99.90;;;;;;7393163;19;20497;-88
2023/10/05 04:51:45;;;;;;;0.80;0.80;;;13.70;99.90;;;;;;7395279;19;20138;-88
2023/10/05 04:54:12;;;;;;;1.98;1.10;;;13.60;99.90;;;;;;7394285;19;20512;-88
2023/10/05 05:07:01;;;;;;;1.23;0.90;;;13.80;99.90;;;;;;7398477;19;20122;-88
2023/10/05 05:09:35;;;;;;;1.00;0.73;;;13.80;99.90;;;;;;7399056;19;20131;-89
2023/10/05 05:12:20;;;;;;;0.93;0.63;;;13.80;99.90;;;;;;7396992;19;20136;-87
2023/10/05 05:14:53;;;;;;;3.15;0.73;;;13.90;99.90;;;;;;7399794;19;20142;-88
2023/10/05 05:17:21;;;;;;;2.30;0.85;;;13.80;99.90;;;;;;7397168;19;20147;-87
2023/10/05 05:19:48;;;;;;;0.80;0.73;;;13.90;99.90;;;;;;7400505;19;20151;-87
2023/10/05 05:22:14;;;;;;;1.25;0.73;;;14.30;99.90;;;;;;7397752;19;20195;-88
2023/10/05 05:24:44;;;;;;;1.23;0.80;;;13.90;99.90;;;;;;7397627;19;20138;-86
2023/10/05 05:29:48;;;;;;;1.85;1.10;;;13.80;99.90;;;;;;7397714;19;20137;-88
2023/10/05 05:32:14;;;;;;;1.50;0.90;;;13.80;99.90;;;;;;7390496;19;20141;-86
2023/10/05 05:34:44;;;;;;;1.52;0.75;;;13.80;99.90;;;;;;7377171;19;20210;-85
2023/10/05 05:37:14;;;;;;;1.80;0.82;;;13.70;99.90;;;;;;7380888;19;20135;-81
2023/10/05 05:39:40;;;;;;;1.02;0.85;;;13.70;99.90;;;;;;7388812;19;20156;-82
2023/10/05 05:42:18;;;;;;;2.13;1.10;;;13.80;99.90;;;;;;7390054;19;20130;-81
2023/10/05 05:44:52;;;;;;;0.80;0.70;;;13.80;99.90;;;;;;7388178;19;20477;-83
2023/10/05 05:47:18;;;;;;;0.90;0.63;;;13.80;99.90;;;;;;7389285;19;20135;-81
2023/10/05 05:49:47;;;;;;;2.17;0.80;;;13.90;99.90;;;;;;7386522;19;20531;-80
2023/10/05 05:52:14;;;;;;;1.42;1.00;;;13.60;99.90;;;;;;7389354;19;20206;-81
2023/10/05 05:54:42;;;;;;;1.50;1.00;;;13.60;99.90;;;;;;7385866;19;20131;-81
2023/10/05 05:57:11;;;;;;;0.73;0.70;;;13.60;99.90;;;;;;7384402;19;20186;-82
2023/10/05 05:59:41;;;;;;;1.02;0.82;;;13.40;99.90;;;;;;7390018;19;20138;-82
2023/10/05 06:02:08;;;;;;;1.73;0.93;;;13.30;99.90;;;;;;7389802;19;20601;-82
2023/10/05 06:04:41;;;;;;;1.80;1.00;;;13.40;99.90;;;;;;7389223;19;20483;-79
2023/10/05 06:07:16;;;;;;;1.13;1.05;;;13.70;99.90;;;;;;7387965;19;20130;-82
2023/10/05 06:09:45;;;;;;;0.75;0.63;;;13.90;99.90;;;;;;7393235;19;20538;-82
2023/10/05 06:12:12;;;;;;;0.95;0.80;;;13.90;99.90;;;;;;7392236;19;20150;-83
2023/10/05 06:14:44;;;;;;;1.70;1.20;;;13.90;99.90;;;;;;7395132;19;20627;-82
2023/10/05 06:17:10;;;;;;;1.00;0.88;;;13.90;99.90;;;;;;7388218;19;20502;-81
2023/10/05 06:19:36;;;;;;;0.88;0.88;;;13.90;99.90;;;;;;7395214;19;20206;-81
2023/10/05 06:22:04;;;;;;;1.60;1.25;;;13.90;99.90;;;;;;7394853;19;20291;-80
2023/10/05 06:24:30;;;;;;;1.40;1.13;;;13.80;99.90;;;;;;7393212;19;20145;-81
2023/10/05 06:26:56;;;;;;;1.20;1.00;;;13.90;99.90;;;;;;7393166;19;20146;-87
2023/10/05 06:29:21;;;;;;;1.58;1.25;;;13.90;99.90;;;;;;7396122;19;20139;-88
2023/10/05 06:31:47;;;;;;;1.27;1.05;;;13.90;99.90;;;;;;7394325;19;20151;-87
2023/10/05 06:34:13;;;;;;;1.33;1.13;;;13.90;99.90;;;;;;7398084;19;20586;-91
2023/10/05 06:36:39;;;;;;;1.55;0.93;;;14.00;99.90;;;;;;7396879;19;20155;-88
2023/10/05 06:39:06;;;;;;;1.38;0.98;;;13.90;99.90;;;;;;7398078;19;20191;-88
2023/10/05 06:41:36;;;;;;;1.67;1.10;;;13.90;99.90;;;;;;7399125;19;20880;-87
2023/10/05 06:44:03;;;;;;;1.85;0.90;;;13.90;99.90;;;;;;7394566;19;20135;-86
2023/10/05 06:46:29;;;;;;;1.02;0.77;;;13.40;99.90;;;;;;7397905;19;20147;-88
2023/10/05 06:48:55;;;;;;;1.92;1.55;;;13.00;99.90;;;;;;7392696;19;20456;-88
2023/10/05 06:51:25;;;;;;;2.00;1.10;;;13.40;99.90;;;;;;7396848;19;20153;-88
2023/10/05 06:53:51;;;;;;;0.60;0.60;;;13.60;99.90;;;;;;7392756;19;20159;-87
2023/10/05 06:56:18;;;;;;;1.42;0.98;;;13.60;99.90;;;;;;7392451;19;20160;-87
2023/10/05 06:58:44;;;;;;;0.80;0.80;;;13.70;99.90;;;;;;7396099;19;20161;-88
2023/10/05 07:01:10;;;;;;;0.70;0.68;;;13.90;99.90;;;;;;7394931;19;20152;-88
2023/10/05 07:03:36;;;;;;;0.90;0.90;;;14.00;99.90;;;;;;7395629;19;20151;-88
2023/10/05 07:06:05;;;;;;;1.05;0.90;;;13.90;99.90;;;;;;7389772;19;20590;-89
2023/10/05 07:08:33;;;;;;;1.35;0.82;;;13.90;99.90;;;;;;7391804;19;20606;-90
2023/10/05 07:10:59;;;;;;;3.78;1.55;;;13.80;99.90;;;;;;7394190;19;20689;-90
2023/10/05 07:13:28;;;;;;;1.27;1.00;;;13.80;99.90;;;;;;7392893;19;20630;-88
2023/10/05 07:15:55;;;;;;;2.05;1.20;;;14.00;99.90;;;;;;7387414;19;20863;-88
2023/10/05 07:18:21;;;;;;;0.80;0.80;;;14.00;99.90;;;;;;7393273;19;20247;-87
2023/10/05 07:20:48;;;;;;;0.50;0.50;;;14.10;99.90;;;;;;7392659;19;20241;-87
2023/10/05 07:23:14;;;;;;;1.95;1.00;;;14.10;99.90;;;;;;7396870;19;20127;-89
2023/10/05 07:25:41;;;;;;;1.10;0.90;;;14.00;99.90;;;;;;7397221;19;20142;-89
2023/10/05 07:28:14;;;;;;;1.00;0.77;;;14.00;99.90;;;;;;7396034;19;20194;-87
2023/10/05 07:30:41;;;;;;;1.08;0.82;;;14.20;99.90;;;;;;7394246;19;20596;-87
2023/10/05 07:33:07;;;;;;;0.85;0.85;;;14.30;99.90;;;;;;7395833;19;20239;-88
2023/10/05 07:35:33;;;;;;;1.58;1.08;;;14.40;99.90;;;;;;7391022;19;20224;-89
2023/10/05 07:37:59;;;;;;;1.50;1.05;;;14.30;99.90;;;;;;7396678;19;20150;-86
2023/10/05 07:40:25;;;;;;;2.35;1.55;;;14.40;99.90;;;;;;7394611;19;20130;-88
2023/10/05 07:42:51;;;;;;;0.98;0.80;;;14.50;99.90;;;;;;7402003;19;20140;-89
2023/10/05 07:45:17;;;;;;;0.88;0.88;;;14.50;99.90;;;;;;7392214;19;20130;-86
2023/10/05 07:47:44;;;;;;;2.47;0.65;;;14.50;99.90;;;;;;7392535;19;20149;-86
2023/10/05 07:50:11;;;;;;;1.40;1.23;;;14.50;99.90;;;;;;7395339;19;20134;-89
2023/10/05 07:52:40;;;;;;;1.85;1.20;;;14.60;99.90;;;;;;7394745;19;20562;-89
2023/10/05 07:55:08;;;;;;;1.10;0.80;;;14.60;99.90;;;;;;7394217;19;20127;-89
2023/10/05 07:57:33;;;;;;;1.55;1.08;;;14.60;99.90;;;;;;7390853;19;20207;-89
2023/10/05 07:59:59;;;;;;;1.92;1.20;;;14.60;99.90;;;;;;7392369;19;20485;-89
2023/10/05 08:02:25;;;;;;;1.52;1.20;;;14.60;99.90;;;;;;7395516;19;20610;-89
2023/10/05 08:04:51;;;;;;;1.52;1.13;;;14.50;99.90;;;;;;7394005;19;20173;-86
2023/10/05 08:07:17;;;;;;;0.90;0.73;;;14.60;99.90;;;;;;7393307;19;20231;-87
2023/10/05 08:09:43;;;;;;;2.10;1.52;;;14.60;99.90;;;;;;7394145;19;20493;-87
2023/10/05 08:12:11;;;;;;;1.65;1.33;;;14.60;99.90;;;;;;7395001;19;20135;-88
2023/10/05 08:14:37;;;;;;;3.60;1.63;;;14.70;99.90;;;;;;7393487;19;20476;-86
2023/10/05 08:17:03;;;;;;;1.00;0.90;;;14.90;99.90;;;;;;7392771;19;21401;-87
2023/10/05 08:19:29;;;;;;;0.65;0.65;;;15.00;99.90;;;;;;7392447;19;20153;-86
2023/10/05 08:21:55;;;;;;;2.70;1.20;;;15.00;99.90;;;;;;7393250;19;20214;-88
2023/10/05 08:24:23;;;;;;;2.47;1.20;;;15.00;99.90;;;;;;7393573;19;20126;-88
2023/10/05 08:26:53;;;;;;;2.05;1.27;;;15.10;99.90;;;;;;7394061;19;20206;-89
2023/10/05 08:29:23;;;;;;;0.95;0.95;;;15.30;99.90;;;;;;7396850;19;20134;-88
2023/10/05 08:31:49;;;;;;;0.82;0.77;;;15.30;99.90;;;;;;7396016;19;20134;-89
2023/10/05 08:34:21;;;;;;;3.55;1.10;;;15.30;99.90;;;;;;7394057;19;20218;-89
2023/10/05 08:36:53;;;;;;;1.80;1.23;;;15.30;99.90;;;;;;7393776;19;20166;-89
2023/10/05 08:39:25;;;;;;;2.08;1.20;;;15.30;99.90;;;;;;7394701;19;20147;-88
2023/10/05 08:41:54;;;;;;;1.85;1.25;;;15.30;99.90;;;;;;7396587;19;20275;-87
2023/10/05 08:44:27;;;;;;;1.83;1.25;;;15.50;99.90;;;;;;7395005;19;20168;-90
2023/10/05 08:46:56;;;;;;;1.30;1.20;;;15.40;99.90;;;;;;7394093;19;20206;-88
2023/10/05 08:49:27;;;;;;;3.33;1.70;;;15.40;99.90;;;;;;7394473;19;20160;-89
2023/10/05 08:51:53;;;;;;;3.17;1.80;;;15.50;99.90;;;;;;7394731;19;20182;-89
2023/10/05 08:54:27;;;;;;;2.97;1.42;;;15.60;99.90;;;;;;7394562;19;20130;-90
2023/10/05 08:56:58;;;;;;;2.28;1.23;;;15.80;99.90;;;;;;7395047;19;20491;-89
2023/10/05 08:59:45;;;;;;;1.88;1.20;;;15.90;99.90;;;;;;7393367;19;20134;-89
2023/10/05 09:02:11;;;;;;;1.55;1.20;;;15.90;99.90;;;;;;7393915;19;20147;-88
2023/10/05 09:04:43;;;;;;;2.10;1.33;;;15.90;99.90;;;;;;7393473;19;21020;-88
2023/10/05 09:07:34;;;;;;;1.95;1.13;;;15.90;99.90;;;;;;7394425;19;20222;-89
2023/10/05 09:10:00;;;;;;;1.30;1.13;;;15.90;99.90;;;;;;7395502;19;20162;-88
2023/10/05 09:12:50;;;;;;;1.30;0.93;;;16.00;99.90;;;;;;7406591;19;20150;-90
2023/10/05 09:20:33;;;;;;;3.35;1.30;;;16.30;99.90;;;;;;7397714;19;20146;-90
2023/10/05 09:23:05;;;;;;;2.35;1.25;;;16.40;99.90;;;;;;7395031;19;20213;-89
2023/10/05 09:25:39;;;;;;;0.93;0.70;;;16.50;99.90;;;;;;7393484;19;20169;-87
2023/10/05 09:28:19;;;;;;;1.17;1.00;;;16.50;99.90;;;;;;7394234;19;20142;-85
2023/10/05 09:31:07;;;;;;;2.25;1.35;;;16.50;99.90;;;;;;7395058;19;20141;-86
2023/10/05 09:33:46;;;;;;;0.98;0.80;;;16.40;99.90;;;;;;7390562;19;20130;-90
2023/10/05 09:36:19;;;;;;;0.88;0.75;;;16.40;99.90;;;;;;7391984;19;20131;-89
2023/10/05 09:38:49;;;;;;;2.37;1.23;;;16.50;99.90;;;;;;7399938;19;20400;-88
2023/10/05 09:41:20;;;;;;;0.95;0.77;;;16.40;99.90;;;;;;7401107;19;20579;-92
2023/10/05 09:43:58;;;;;;;1.55;1.20;;;16.50;99.90;;;;;;7394687;19;20150;-87
2023/10/05 09:46:27;;;;;;;2.33;1.02;;;16.70;99.90;;;;;;7393807;19;20140;-90
2023/10/05 09:48:53;;;;;;;1.60;1.00;;;16.80;99.90;;;;;;7398532;19;20154;-90
2023/10/05 09:51:20;;;;;;;1.92;0.98;;;16.90;99.90;;;;;;7398087;19;20154;-90
2023/10/05 09:53:51;;;;;;;1.30;1.02;;;17.00;99.90;;;;;;7391499;19;20135;-89
2023/10/05 09:56:26;;;;;;;3.20;1.05;;;17.00;99.90;;;;;;7390689;19;20231;-88
2023/10/05 09:58:58;;;;;;;2.15;1.08;;;17.00;99.90;;;;;;7391065;19;20161;-85
2023/10/05 10:01:27;;;;;;;2.10;1.10;;;16.80;99.90;;;;;;7391307;19;20151;-88
2023/10/05 10:03:55;;;;;;;2.05;1.13;;;16.90;99.90;;;;;;7390744;19;20156;-87
2023/10/05 10:06:28;;;;;;;1.60;1.13;;;17.20;99.90;;;;;;7388567;19;20158;-89
2023/10/05 10:09:08;;;;;;;3.50;1.30;;;17.30;99.90;;;;;;7397816;19;20142;-88
2023/10/05 10:11:36;;;;;;;2.05;1.25;;;17.10;99.90;;;;;;7391202;19;20147;-87
2023/10/05 10:14:08;;;;;;;2.78;1.50;;;17.00;99.90;;;;;;7395071;19;20150;-90
2023/10/05 10:16:39;;;;;;;1.60;1.30;;;17.10;99.90;;;;;;7401190;19;20135;-86
2023/10/05 10:19:08;;;;;;;1.73;1.08;;;16.90;99.90;;;;;;7394626;19;20202;-88
2023/10/05 10:22:26;;;;;;;1.40;1.10;;;17.00;99.90;;;;;;7391971;19;20142;-87
2023/10/05 10:24:29;;;;;;;1.55;0.98;;;17.20;99.90;;;;;;7394897;19;20171;-92
2023/10/05 10:27:11;;;;;;;1.27;0.70;;;17.40;99.90;;;;;;7406855;19;20142;-89
2023/10/05 10:29:56;;;;;;;2.47;1.25;;;17.40;99.90;;;;;;7394182;19;20202;-87
2023/10/05 10:32:30;;;;;;;1.25;0.80;;;17.30;99.90;;;;;;7396394;19;20161;-87
2023/10/05 10:35:13;;;;;;;1.40;0.90;;;17.30;99.90;;;;;;7389761;19;20146;-83
2023/10/05 10:37:44;;;;;;;2.40;1.33;;;17.40;99.90;;;;;;7385248;19;20218;-83
2023/10/05 10:42:53;;;;;;;2.15;1.45;;;17.40;99.90;;;;;;7397381;19;20178;-84
2023/10/05 10:45:29;;;;;;;0.98;0.60;;;17.30;99.90;;;;;;7391504;19;20147;-83
2023/10/05 10:47:56;;;;;;;2.28;1.30;;;17.20;99.90;;;;;;7385904;19;20150;-81
2023/10/05 10:50:23;;;;;;;2.55;1.63;;;17.30;99.90;;;;;;7387205;19;20157;-82
2023/10/05 10:52:55;;;;;;;2.88;1.60;;;17.30;99.90;;;;;;7387171;19;20491;-81
2023/10/05 10:55:32;;;;;;;1.73;0.90;;;17.40;99.90;;;;;;7387807;19;20156;-83
2023/10/05 10:58:00;;;;;;;1.27;0.95;;;17.60;99.90;;;;;;7395608;19;20317;-80
2023/10/05 11:03:11;;;;;;;1.73;0.90;;;17.80;99.90;;;;;;7393749;19;20142;-84
2023/10/05 11:05:40;;;;;;;2.80;1.05;;;17.80;99.90;;;;;;7392871;19;20182;-85
2023/10/05 11:08:15;;;;;;;0.88;0.70;;;18.00;99.90;;;;;;7400910;19;20138;-85
2023/10/05 11:10:42;;;;;;;3.20;1.10;;;18.10;99.90;;;;;;7398496;19;20174;-84
2023/10/05 11:13:15;;;;;;;1.35;0.93;;;18.10;99.90;;;;;;7402210;19;20163;-83
2023/10/05 11:16:04;;;;;;;3.78;0.98;;;18.10;99.90;;;;;;7394491;19;20143;-85
2023/10/05 11:18:40;;;;;;;2.28;1.20;;;17.90;99.90;;;;;;7395210;19;20151;-85
2023/10/05 11:21:12;;;;;;;3.28;1.33;;;17.80;99.90;;;;;;7392660;19;20230;-84
2023/10/05 11:23:56;;;;;;;2.20;1.05;;;17.70;99.90;;;;;;7395927;19;20159;-86
2023/10/05 11:26:35;;;;;;;2.53;1.52;;;17.80;99.90;;;;;;7396804;19;20173;-84
2023/10/05 11:29:07;;;;;;;2.38;1.33;;;17.90;99.90;;;;;;7399664;19;20138;-87
2023/10/05 11:31:38;;;;;;;2.67;0.88;;;18.00;99.90;;;;;;7394624;19;20158;-81
2023/10/05 11:34:09;;;;;;;1.83;1.30;;;18.10;99.90;;;;;;7393065;19;20143;-88
2023/10/05 11:36:39;;;;;;;2.05;0.93;;;18.10;99.90;;;;;;7394536;19;20151;-84
2023/10/05 11:39:20;;;;;;;1.13;0.80;;;18.00;99.90;;;;;;7393099;19;20161;-86
2023/10/05 11:41:46;;;;;;;1.48;1.00;;;17.90;99.90;;;;;;7391139;19;20232;-86
2023/10/05 11:44:18;;;;;;;1.88;1.10;;;17.90;99.90;;;;;;7391666;19;20184;-83
2023/10/05 11:46:46;;;;;;;2.15;0.98;;;18.00;99.90;;;;;;7393565;19;20221;-85
2023/10/05 11:49:16;;;;;;;2.97;1.08;;;18.00;99.90;;;;;;7392293;19;20157;-85
2023/10/05 11:51:56;;;;;;;2.92;1.83;;;18.00;99.90;;;;;;7392372;19;20152;-85
2023/10/05 11:54:32;;;;;;;5.90;2.80;;;17.90;99.90;;;;;;7393183;19;20138;-87
2023/10/05 11:57:04;;;;;;;2.78;1.33;;;18.10;99.90;;;;;;7390408;19;20146;-85
2023/10/05 11:59:32;;;;;;;2.05;1.38;;;18.30;99.90;;;;;;7397169;19;20603;-80
2023/10/05 12:01:58;;;;;;;2.65;1.00;;;18.30;99.90;;;;;;7392414;19;20161;-81
2023/10/05 12:04:24;;;;;;;2.65;1.20;;;18.40;99.90;;;;;;7395789;19;20145;-84
2023/10/05 12:06:58;;;;;;;1.83;0.80;;;18.40;99.90;;;;;;7388355;19;20198;-82
2023/10/05 12:09:32;;;;;;;7.00;1.73;;;18.20;99.90;;;;;;7394479;19;20182;-85
2023/10/05 12:11:59;;;;;;;1.83;1.30;;;18.40;99.90;;;;;;7395652;19;20143;-84
2023/10/05 12:14:25;;;;;;;2.05;0.80;;;18.40;99.90;;;;;;7393602;19;20174;-87
2023/10/05 12:16:56;;;;;;;1.42;1.00;;;18.40;99.90;;;;;;7393801;19;20583;-84
2023/10/05 12:19:28;;;;;;;1.88;1.10;;;18.20;99.90;;;;;;7396783;19;20161;-83
2023/10/05 12:21:59;;;;;;;2.95;0.95;;;18.10;99.90;;;;;;7394314;19;20150;-88
2023/10/05 12:24:27;;;;;;;1.40;0.68;;;18.00;99.90;;;;;;7396988;19;20173;-88
2023/10/05 12:26:54;;;;;;;2.75;1.00;;;18.00;99.90;;;;;;7396454;19;20159;-87
2023/10/05 12:29:21;;;;;;;1.45;1.25;;;18.10;99.90;;;;;;7395880;19;20154;-86
2023/10/05 12:31:47;;;;;;;0.60;0.47;;;18.00;99.90;;;;;;7395411;19;20161;-85
2023/10/05 12:34:16;;;;;;;2.40;0.90;;;18.00;99.90;;;;;;7393170;19;20134;-87
2023/10/05 12:36:51;;;;;;;3.50;1.00;;;18.20;99.90;;;;;;7393421;19;20143;-87
2023/10/05 12:39:21;;;;;;;2.10;1.23;;;18.10;99.90;;;;;;7400918;19;20134;-86
2023/10/05 12:41:48;;;;;;;2.03;1.02;;;18.20;99.90;;;;;;7395751;19;20134;-86
2023/10/05 12:44:14;;;;;;;1.83;1.13;;;18.10;99.90;;;;;;7394968;19;20202;-86
2023/10/05 12:46:41;;;;;;;2.60;0.82;;;18.00;99.90;;;;;;7394863;19;20143;-87
2023/10/05 12:49:07;;;;;;;0.98;0.85;;;17.90;99.90;;;;;;7395234;19;20170;-86
2023/10/05 12:51:37;;;;;;;1.25;0.95;;;17.80;99.90;;;;;;7394553;19;20702;-87
2023/10/05 12:54:18;;;;;;;1.17;0.82;;;17.70;99.90;;;;;;7393836;19;20520;-86
2023/10/05 12:56:50;;;;;;;3.00;1.00;;;17.70;99.90;;;;;;7392956;19;20315;-87
2023/10/05 12:59:24;;;;;;;1.92;0.82;;;17.60;99.90;;;;;;7399141;19;20223;-86
2023/10/05 13:01:51;;;;;;;1.25;0.82;;;17.60;99.90;;;;;;7395441;19;20246;-87
2023/10/05 13:04:18;;;;;;;1.10;0.90;;;17.60;99.90;;;;;;7392177;19;20146;-86
2023/10/05 13:06:46;;;;;;;1.42;0.82;;;17.50;99.90;;;;;;7390949;19;20181;-87
2023/10/05 13:09:13;;;;;;;2.55;1.10;;;17.60;99.90;;;;;;7395033;19;20130;-87
2023/10/05 13:11:45;;;;;;;1.98;1.08;;;17.80;99.90;;;;;;7394243;19;20592;-86
2023/10/05 13:14:14;;;;;;;1.40;1.00;;;17.70;99.90;;;;;;7394144;19;20149;-86
2023/10/05 13:16:41;;;;;;;0.85;0.80;;;17.70;99.90;;;;;;7392371;19;20509;-86
2023/10/05 13:19:10;;;;;;;3.17;1.05;;;17.60;99.90;;;;;;7393673;19;20138;-86
2023/10/05 13:21:45;;;;;;;1.45;0.77;;;17.70;99.90;;;;;;7392815;19;20170;-86
2023/10/05 13:24:11;;;;;;;1.65;1.40;;;17.70;99.90;;;;;;7392537;19;20670;-87
2023/10/05 13:26:45;;;;;;;3.33;1.27;;;17.70;99.90;;;;;;7393741;19;20143;-88
2023/10/05 13:29:17;;;;;;;1.55;1.02;;;17.70;99.90;;;;;;7393948;19;20217;-88
2023/10/05 13:31:46;;;;;;;1.27;1.17;;;17.70;99.90;;;;;;7393200;19;20139;-85
2023/10/05 13:34:16;;;;;;;2.28;1.20;;;17.70;99.90;;;;;;7394342;19;20142;-88
2023/10/05 13:36:52;;;;;;;1.42;1.25;;;17.70;99.90;;;;;;7393414;19;20158;-87